sensor_id;sensor_type;location;lat;lon;timestamp;temperature;humidity
24664;DHT22;12791;50.992;13.788;2023-07-13T00:00:36;21.70;78.10
24664;DHT22;12791;50.992;13.788;2023-07-13T00:03:04;21.70;78.20
24664;DHT22;12791;50.992;13.788;2023-07-13T00:05:31;21.70;78.40
24664;DHT22;12791;50.992;13.788;2023-07-13T00:07:58;21.70;78.40
24664;DHT22;12791;50.992;13.788;2023-07-13T00:10:25;21.70;78.30
24664;DHT22;12791;50.992;13.788;2023-07-13T00:12:52;21.70;78.00
24664;DHT22;12791;50.992;13.788;2023-07-13T00:15:23;21.70;78.30
24664;DHT22;12791;50.992;13.788;2023-07-13T00:17:50;21.60;78.70
24664;DHT22;12791;50.992;13.788;2023-07-13T00:20:19;21.60;79.60
24664;DHT22;12791;50.992;13.788;2023-07-13T00:22:47;21.60;79.60
24664;DHT22;12791;50.992;13.788;2023-07-13T00:25:14;21.60;79.30
24664;DHT22;12791;50.992;13.788;2023-07-13T00:27:42;21.60;79.40
24664;DHT22;12791;50.992;13.788;2023-07-13T00:30:15;21.60;79.60
24664;DHT22;12791;50.992;13.788;2023-07-13T00:32:42;21.60;79.60
24664;DHT22;12791;50.992;13.788;2023-07-13T00:35:09;21.60;79.60
24664;DHT22;12791;50.992;13.788;2023-07-13T00:37:37;21.60;79.70
24664;DHT22;12791;50.992;13.788;2023-07-13T00:40:05;21.60;80.50
24664;DHT22;12791;50.992;13.788;2023-07-13T00:42:33;21.60;81.70
24664;DHT22;12791;50.992;13.788;2023-07-13T00:45:02;21.50;84.80
24664;DHT22;12791;50.992;13.788;2023-07-13T00:47:29;21.50;88.20
24664;DHT22;12791;50.992;13.788;2023-07-13T00:49:56;21.40;90.70
24664;DHT22;12791;50.992;13.788;2023-07-13T00:52:23;21.30;92.40
24664;DHT22;12791;50.992;13.788;2023-07-13T00:54:52;21.10;93.40
24664;DHT22;12791;50.992;13.788;2023-07-13T00:57:20;21.00;94.60
24664;DHT22;12791;50.992;13.788;2023-07-13T00:59:50;21.00;95.80
24664;DHT22;12791;50.992;13.788;2023-07-13T01:02:19;20.90;97.20
24664;DHT22;12791;50.992;13.788;2023-07-13T01:04:47;20.80;99.00
24664;DHT22;12791;50.992;13.788;2023-07-13T01:07:14;20.70;99.90
24664;DHT22;12791;50.992;13.788;2023-07-13T01:09:41;20.60;99.90
24664;DHT22;12791;50.992;13.788;2023-07-13T01:12:10;20.50;99.90
24664;DHT22;12791;50.992;13.788;2023-07-13T01:14:37;20.40;99.90
24664;DHT22;12791;50.992;13.788;2023-07-13T01:17:04;20.30;99.90
24664;DHT22;12791;50.992;13.788;2023-07-13T01:19:35;20.30;99.90
24664;DHT22;12791;50.992;13.788;2023-07-13T01:22:05;20.20;99.90
24664;DHT22;12791;50.992;13.788;2023-07-13T01:24:34;20.10;99.90
24664;DHT22;12791;50.992;13.788;2023-07-13T01:27:02;20.10;99.90
24664;DHT22;12791;50.992;13.788;2023-07-13T01:29:31;20.00;99.90
24664;DHT22;12791;50.992;13.788;2023-07-13T01:31:57;19.90;99.90
24664;DHT22;12791;50.992;13.788;2023-07-13T01:34:25;19.90;99.90
24664;DHT22;12791;50.992;13.788;2023-07-13T01:36:52;19.80;99.90
24664;DHT22;12791;50.992;13.788;2023-07-13T01:39:21;19.80;99.90
24664;DHT22;12791;50.992;13.788;2023-07-13T01:41:48;19.70;99.90
24664;DHT22;12791;50.992;13.788;2023-07-13T01:44:15;19.70;99.90
24664;DHT22;12791;50.992;13.788;2023-07-13T01:46:42;19.70;99.90
24664;DHT22;12791;50.992;13.788;2023-07-13T01:49:09;19.70;99.90
24664;DHT22;12791;50.992;13.788;2023-07-13T01:51:36;19.70;99.90
24664;DHT22;12791;50.992;13.788;2023-07-13T01:54:06;19.70;99.90
24664;DHT22;12791;50.992;13.788;2023-07-13T01:56:34;19.60;99.90
24664;DHT22;12791;50.992;13.788;2023-07-13T01:59:01;19.60;99.90
24664;DHT22;12791;50.992;13.788;2023-07-13T02:01:28;19.60;99.90
24664;DHT22;12791;50.992;13.788;2023-07-13T02:03:55;19.60;99.90
24664;DHT22;12791;50.992;13.788;2023-07-13T02:06:22;19.60;99.90
24664;DHT22;12791;50.992;13.788;2023-07-13T02:08:49;19.50;99.90
24664;DHT22;12791;50.992;13.788;2023-07-13T02:11:16;19.50;99.90
24664;DHT22;12791;50.992;13.788;2023-07-13T02:13:44;19.50;99.90
24664;DHT22;12791;50.992;13.788;2023-07-13T02:16:11;19.50;99.90
24664;DHT22;12791;50.992;13.788;2023-07-13T02:18:38;19.50;99.90
24664;DHT22;12791;50.992;13.788;2023-07-13T02:21:05;19.50;99.90
24664;DHT22;12791;50.992;13.788;2023-07-13T02:23:32;19.50;99.90
24664;DHT22;12791;50.992;13.788;2023-07-13T02:26:02;19.50;99.90
24664;DHT22;12791;50.992;13.788;2023-07-13T02:28:29;19.50;99.90
24664;DHT22;12791;50.992;13.788;2023-07-13T02:31:05;19.40;99.90
24664;DHT22;12791;50.992;13.788;2023-07-13T02:33:32;19.40;99.90
24664;DHT22;12791;50.992;13.788;2023-07-13T02:35:59;19.40;99.90
24664;DHT22;12791;50.992;13.788;2023-07-13T02:38:27;19.30;99.90
24664;DHT22;12791;50.992;13.788;2023-07-13T02:40:54;19.30;99.90
24664;DHT22;12791;50.992;13.788;2023-07-13T02:43:22;19.30;99.90
24664;DHT22;12791;50.992;13.788;2023-07-13T02:45:49;19.30;99.90
24664;DHT22;12791;50.992;13.788;2023-07-13T02:48:17;19.30;99.90
24664;DHT22;12791;50.992;13.788;2023-07-13T02:50:44;19.30;99.90
24664;DHT22;12791;50.992;13.788;2023-07-13T02:53:12;19.30;99.90
24664;DHT22;12791;50.992;13.788;2023-07-13T02:55:39;19.20;99.90
24664;DHT22;12791;50.992;13.788;2023-07-13T02:58:06;19.10;99.90
24664;DHT22;12791;50.992;13.788;2023-07-13T03:00:33;19.10;99.90
24664;DHT22;12791;50.992;13.788;2023-07-13T03:03:00;19.10;99.90
24664;DHT22;12791;50.992;13.788;2023-07-13T03:05:28;19.10;99.90
24664;DHT22;12791;50.992;13.788;2023-07-13T03:07:55;19.10;99.90
24664;DHT22;12791;50.992;13.788;2023-07-13T03:10:22;19.00;99.90
24664;DHT22;12791;50.992;13.788;2023-07-13T03:12:49;19.00;99.90
24664;DHT22;12791;50.992;13.788;2023-07-13T03:15:16;19.00;99.90
24664;DHT22;12791;50.992;13.788;2023-07-13T03:17:43;19.00;99.90
24664;DHT22;12791;50.992;13.788;2023-07-13T03:20:11;19.00;99.90
24664;DHT22;12791;50.992;13.788;2023-07-13T03:22:39;19.00;99.90
24664;DHT22;12791;50.992;13.788;2023-07-13T03:25:07;19.00;99.90
24664;DHT22;12791;50.992;13.788;2023-07-13T03:27:35;19.00;99.90
24664;DHT22;12791;50.992;13.788;2023-07-13T03:30:02;18.90;99.90
24664;DHT22;12791;50.992;13.788;2023-07-13T03:32:29;18.90;99.90
24664;DHT22;12791;50.992;13.788;2023-07-13T03:34:55;18.90;99.90
24664;DHT22;12791;50.992;13.788;2023-07-13T03:37:22;19.00;99.90
24664;DHT22;12791;50.992;13.788;2023-07-13T03:39:51;19.00;99.90
24664;DHT22;12791;50.992;13.788;2023-07-13T03:42:18;19.00;99.90
24664;DHT22;12791;50.992;13.788;2023-07-13T03:44:44;19.00;99.90
24664;DHT22;12791;50.992;13.788;2023-07-13T03:47:17;19.10;99.90
24664;DHT22;12791;50.992;13.788;2023-07-13T03:49:44;19.10;99.90
24664;DHT22;12791;50.992;13.788;2023-07-13T03:52:12;19.10;99.90
24664;DHT22;12791;50.992;13.788;2023-07-13T03:54:39;19.10;99.90
24664;DHT22;12791;50.992;13.788;2023-07-13T03:57:08;19.10;99.90
24664;DHT22;12791;50.992;13.788;2023-07-13T03:59:35;19.10;99.90
24664;DHT22;12791;50.992;13.788;2023-07-13T04:02:02;19.10;99.90
24664;DHT22;12791;50.992;13.788;2023-07-13T04:04:30;19.00;99.90
24664;DHT22;12791;50.992;13.788;2023-07-13T04:06:57;19.00;99.90
24664;DHT22;12791;50.992;13.788;2023-07-13T04:09:25;18.90;99.90
24664;DHT22;12791;50.992;13.788;2023-07-13T04:11:51;18.90;99.90
24664;DHT22;12791;50.992;13.788;2023-07-13T04:14:20;19.00;99.90
24664;DHT22;12791;50.992;13.788;2023-07-13T04:16:47;19.00;99.90
24664;DHT22;12791;50.992;13.788;2023-07-13T04:19:14;19.00;99.90
24664;DHT22;12791;50.992;13.788;2023-07-13T04:21:41;19.00;99.90
24664;DHT22;12791;50.992;13.788;2023-07-13T04:24:08;19.10;99.90
24664;DHT22;12791;50.992;13.788;2023-07-13T04:26:35;19.20;99.90
24664;DHT22;12791;50.992;13.788;2023-07-13T04:29:04;19.20;99.90
24664;DHT22;12791;50.992;13.788;2023-07-13T04:31:33;19.20;99.90
24664;DHT22;12791;50.992;13.788;2023-07-13T04:34:00;19.30;99.90
24664;DHT22;12791;50.992;13.788;2023-07-13T04:36:28;19.30;99.90
24664;DHT22;12791;50.992;13.788;2023-07-13T04:38:55;19.30;99.90
24664;DHT22;12791;50.992;13.788;2023-07-13T04:41:22;19.30;99.90
24664;DHT22;12791;50.992;13.788;2023-07-13T04:43:49;19.30;99.90
24664;DHT22;12791;50.992;13.788;2023-07-13T04:46:17;19.30;99.90
24664;DHT22;12791;50.992;13.788;2023-07-13T04:48:46;19.30;99.90
24664;DHT22;12791;50.992;13.788;2023-07-13T04:51:13;19.30;99.90
24664;DHT22;12791;50.992;13.788;2023-07-13T04:53:39;19.30;99.90
24664;DHT22;12791;50.992;13.788;2023-07-13T04:56:06;19.30;99.90
24664;DHT22;12791;50.992;13.788;2023-07-13T04:58:34;19.40;99.90
24664;DHT22;12791;50.992;13.788;2023-07-13T05:01:01;19.40;99.90
24664;DHT22;12791;50.992;13.788;2023-07-13T05:03:29;19.40;99.90
24664;DHT22;12791;50.992;13.788;2023-07-13T05:05:59;19.50;99.90
24664;DHT22;12791;50.992;13.788;2023-07-13T05:08:26;19.50;99.90
24664;DHT22;12791;50.992;13.788;2023-07-13T05:10:54;19.50;99.90
24664;DHT22;12791;50.992;13.788;2023-07-13T05:13:21;19.50;99.90
24664;DHT22;12791;50.992;13.788;2023-07-13T05:15:56;19.60;99.90
24664;DHT22;12791;50.992;13.788;2023-07-13T05:18:23;19.60;99.90
24664;DHT22;12791;50.992;13.788;2023-07-13T05:20:59;19.70;99.90
24664;DHT22;12791;50.992;13.788;2023-07-13T05:23:27;19.70;99.90
24664;DHT22;12791;50.992;13.788;2023-07-13T05:25:54;19.70;99.90
24664;DHT22;12791;50.992;13.788;2023-07-13T05:28:21;19.70;99.90
24664;DHT22;12791;50.992;13.788;2023-07-13T05:30:49;19.70;99.90
24664;DHT22;12791;50.992;13.788;2023-07-13T05:33:16;19.70;99.90
24664;DHT22;12791;50.992;13.788;2023-07-13T05:35:43;19.70;99.90
24664;DHT22;12791;50.992;13.788;2023-07-13T05:38:11;19.80;99.90
24664;DHT22;12791;50.992;13.788;2023-07-13T05:40:38;19.90;99.90
24664;DHT22;12791;50.992;13.788;2023-07-13T05:43:05;19.90;99.90
24664;DHT22;12791;50.992;13.788;2023-07-13T05:45:32;19.90;99.90
24664;DHT22;12791;50.992;13.788;2023-07-13T05:47:59;19.80;99.90
24664;DHT22;12791;50.992;13.788;2023-07-13T05:50:26;19.90;99.90
24664;DHT22;12791;50.992;13.788;2023-07-13T05:52:53;19.90;99.90
24664;DHT22;12791;50.992;13.788;2023-07-13T05:55:22;19.90;99.90
24664;DHT22;12791;50.992;13.788;2023-07-13T05:57:49;19.90;99.90
24664;DHT22;12791;50.992;13.788;2023-07-13T06:00:17;20.00;99.90
24664;DHT22;12791;50.992;13.788;2023-07-13T06:02:44;20.00;99.90
24664;DHT22;12791;50.992;13.788;2023-07-13T06:05:11;20.10;99.90
24664;DHT22;12791;50.992;13.788;2023-07-13T06:07:38;20.20;99.90
24664;DHT22;12791;50.992;13.788;2023-07-13T06:10:05;20.30;99.90
24664;DHT22;12791;50.992;13.788;2023-07-13T06:12:34;20.40;99.90
24664;DHT22;12791;50.992;13.788;2023-07-13T06:15:01;20.40;99.90
24664;DHT22;12791;50.992;13.788;2023-07-13T06:17:28;20.50;99.90
24664;DHT22;12791;50.992;13.788;2023-07-13T06:19:55;20.50;99.90
24664;DHT22;12791;50.992;13.788;2023-07-13T06:22:22;20.60;99.90
24664;DHT22;12791;50.992;13.788;2023-07-13T06:24:49;20.60;99.90
24664;DHT22;12791;50.992;13.788;2023-07-13T06:27:16;20.70;99.90
24664;DHT22;12791;50.992;13.788;2023-07-13T06:29:44;20.70;99.90
24664;DHT22;12791;50.992;13.788;2023-07-13T06:32:11;20.70;99.90
24664;DHT22;12791;50.992;13.788;2023-07-13T06:34:38;20.80;99.90
24664;DHT22;12791;50.992;13.788;2023-07-13T06:37:06;20.80;99.90
24664;DHT22;12791;50.992;13.788;2023-07-13T06:39:33;20.80;99.90
24664;DHT22;12791;50.992;13.788;2023-07-13T06:41:59;20.90;99.90
24664;DHT22;12791;50.992;13.788;2023-07-13T06:44:26;20.90;99.90
24664;DHT22;12791;50.992;13.788;2023-07-13T06:46:55;21.00;99.90
24664;DHT22;12791;50.992;13.788;2023-07-13T06:49:21;21.10;99.90
24664;DHT22;12791;50.992;13.788;2023-07-13T06:51:48;21.10;99.90
24664;DHT22;12791;50.992;13.788;2023-07-13T06:54:15;21.10;99.90
24664;DHT22;12791;50.992;13.788;2023-07-13T06:56:42;21.20;99.90
24664;DHT22;12791;50.992;13.788;2023-07-13T06:59:09;21.30;99.90
24664;DHT22;12791;50.992;13.788;2023-07-13T07:01:36;21.30;99.90
24664;DHT22;12791;50.992;13.788;2023-07-13T07:04:04;21.40;99.90
24664;DHT22;12791;50.992;13.788;2023-07-13T07:06:31;21.40;99.90
24664;DHT22;12791;50.992;13.788;2023-07-13T07:08:58;21.40;99.90
24664;DHT22;12791;50.992;13.788;2023-07-13T07:11:25;21.40;99.90
24664;DHT22;12791;50.992;13.788;2023-07-13T07:13:53;21.50;99.90
24664;DHT22;12791;50.992;13.788;2023-07-13T07:16:21;21.60;99.90
24664;DHT22;12791;50.992;13.788;2023-07-13T07:18:48;21.60;99.90
24664;DHT22;12791;50.992;13.788;2023-07-13T07:21:19;21.70;99.90
24664;DHT22;12791;50.992;13.788;2023-07-13T07:23:48;21.80;99.90
24664;DHT22;12791;50.992;13.788;2023-07-13T07:26:15;21.80;99.90
24664;DHT22;12791;50.992;13.788;2023-07-13T07:28:42;21.80;99.90
24664;DHT22;12791;50.992;13.788;2023-07-13T07:31:09;21.90;99.90
24664;DHT22;12791;50.992;13.788;2023-07-13T07:33:36;22.00;99.90
24664;DHT22;12791;50.992;13.788;2023-07-13T07:36:04;22.00;99.90
24664;DHT22;12791;50.992;13.788;2023-07-13T07:38:33;22.00;99.90
24664;DHT22;12791;50.992;13.788;2023-07-13T07:41:05;21.90;99.90
24664;DHT22;12791;50.992;13.788;2023-07-13T07:43:32;22.00;99.90
24664;DHT22;12791;50.992;13.788;2023-07-13T07:45:59;22.10;99.90
24664;DHT22;12791;50.992;13.788;2023-07-13T07:48:26;22.10;99.90
24664;DHT22;12791;50.992;13.788;2023-07-13T07:50:53;22.20;99.90
24664;DHT22;12791;50.992;13.788;2023-07-13T07:53:20;22.20;95.60
24664;DHT22;12791;50.992;13.788;2023-07-13T07:55:49;22.30;94.40
24664;DHT22;12791;50.992;13.788;2023-07-13T07:58:17;22.30;90.20
24664;DHT22;12791;50.992;13.788;2023-07-13T08:00:43;22.40;90.10
24664;DHT22;12791;50.992;13.788;2023-07-13T08:03:10;22.40;82.80
24664;DHT22;12791;50.992;13.788;2023-07-13T08:05:37;22.40;82.90
24664;DHT22;12791;50.992;13.788;2023-07-13T08:08:04;22.50;83.40
24664;DHT22;12791;50.992;13.788;2023-07-13T08:10:31;22.50;84.10
24664;DHT22;12791;50.992;13.788;2023-07-13T08:12:59;22.60;82.40
24664;DHT22;12791;50.992;13.788;2023-07-13T08:15:28;22.60;80.60
24664;DHT22;12791;50.992;13.788;2023-07-13T08:17:55;22.50;80.50
24664;DHT22;12791;50.992;13.788;2023-07-13T08:20:21;22.50;84.60
24664;DHT22;12791;50.992;13.788;2023-07-13T08:22:48;22.50;82.70
24664;DHT22;12791;50.992;13.788;2023-07-13T08:25:16;22.50;83.20
24664;DHT22;12791;50.992;13.788;2023-07-13T08:27:43;22.50;82.60
24664;DHT22;12791;50.992;13.788;2023-07-13T08:30:11;22.60;79.60
24664;DHT22;12791;50.992;13.788;2023-07-13T08:33:01;22.70;80.70
24664;DHT22;12791;50.992;13.788;2023-07-13T08:42:50;22.90;74.20
24664;DHT22;12791;50.992;13.788;2023-07-13T08:45:43;23.00;73.70
24664;DHT22;12791;50.992;13.788;2023-07-13T08:48:15;23.00;71.40
24664;DHT22;12791;50.992;13.788;2023-07-13T08:50:51;23.10;73.50
24664;DHT22;12791;50.992;13.788;2023-07-13T08:53:21;23.20;72.80
24664;DHT22;12791;50.992;13.788;2023-07-13T08:55:52;23.30;72.30
24664;DHT22;12791;50.992;13.788;2023-07-13T08:58:23;23.50;70.80
24664;DHT22;12791;50.992;13.788;2023-07-13T09:01:16;23.60;68.10
24664;DHT22;12791;50.992;13.788;2023-07-13T09:03:52;23.70;63.60
24664;DHT22;12791;50.992;13.788;2023-07-13T09:06:29;23.70;62.00
24664;DHT22;12791;50.992;13.788;2023-07-13T09:09:01;23.70;63.90
24664;DHT22;12791;50.992;13.788;2023-07-13T09:11:46;23.60;64.30
24664;DHT22;12791;50.992;13.788;2023-07-13T09:14:42;23.60;65.40
24664;DHT22;12791;50.992;13.788;2023-07-13T09:17:16;23.60;64.50
24664;DHT22;12791;50.992;13.788;2023-07-13T09:19:44;23.60;64.70
24664;DHT22;12791;50.992;13.788;2023-07-13T09:22:16;23.60;65.20
24664;DHT22;12791;50.992;13.788;2023-07-13T09:24:52;23.70;66.20
24664;DHT22;12791;50.992;13.788;2023-07-13T09:27:27;23.80;65.00
24664;DHT22;12791;50.992;13.788;2023-07-13T09:30:02;23.70;63.30
24664;DHT22;12791;50.992;13.788;2023-07-13T09:32:33;23.80;62.10
24664;DHT22;12791;50.992;13.788;2023-07-13T09:35:00;23.80;61.80
24664;DHT22;12791;50.992;13.788;2023-07-13T09:37:31;23.80;62.00
24664;DHT22;12791;50.992;13.788;2023-07-13T09:39:59;23.80;63.40
24664;DHT22;12791;50.992;13.788;2023-07-13T09:42:31;23.90;63.80
24664;DHT22;12791;50.992;13.788;2023-07-13T09:45:00;23.90;64.20
24664;DHT22;12791;50.992;13.788;2023-07-13T09:47:30;23.90;63.80
24664;DHT22;12791;50.992;13.788;2023-07-13T09:50:01;23.90;61.00
24664;DHT22;12791;50.992;13.788;2023-07-13T09:52:40;23.80;60.40
24664;DHT22;12791;50.992;13.788;2023-07-13T09:55:23;23.80;61.00
24664;DHT22;12791;50.992;13.788;2023-07-13T09:57:51;23.80;61.80
24664;DHT22;12791;50.992;13.788;2023-07-13T10:00:22;23.70;61.70
24664;DHT22;12791;50.992;13.788;2023-07-13T10:03:02;23.70;60.90
24664;DHT22;12791;50.992;13.788;2023-07-13T10:05:40;23.60;60.10
24664;DHT22;12791;50.992;13.788;2023-07-13T10:08:19;23.70;60.20
24664;DHT22;12791;50.992;13.788;2023-07-13T10:10:52;23.70;59.50
24664;DHT22;12791;50.992;13.788;2023-07-13T10:13:33;23.80;62.60
24664;DHT22;12791;50.992;13.788;2023-07-13T10:16:03;23.90;60.90
24664;DHT22;12791;50.992;13.788;2023-07-13T10:18:38;24.00;60.10
24664;DHT22;12791;50.992;13.788;2023-07-13T10:21:16;24.00;59.10
24664;DHT22;12791;50.992;13.788;2023-07-13T10:23:46;24.10;58.50
24664;DHT22;12791;50.992;13.788;2023-07-13T10:26:18;24.10;57.80
24664;DHT22;12791;50.992;13.788;2023-07-13T10:28:49;24.20;57.90
24664;DHT22;12791;50.992;13.788;2023-07-13T10:31:19;24.20;57.70
24664;DHT22;12791;50.992;13.788;2023-07-13T10:33:47;24.20;57.20
24664;DHT22;12791;50.992;13.788;2023-07-13T10:36:31;24.20;56.70
24664;DHT22;12791;50.992;13.788;2023-07-13T10:39:02;24.20;56.50
24664;DHT22;12791;50.992;13.788;2023-07-13T10:41:33;24.30;57.50
24664;DHT22;12791;50.992;13.788;2023-07-13T10:44:02;24.30;57.10
24664;DHT22;12791;50.992;13.788;2023-07-13T10:46:31;24.30;57.80
24664;DHT22;12791;50.992;13.788;2023-07-13T10:49:01;24.30;57.50
24664;DHT22;12791;50.992;13.788;2023-07-13T10:51:31;24.30;57.40
24664;DHT22;12791;50.992;13.788;2023-07-13T10:54:15;24.40;57.80
24664;DHT22;12791;50.992;13.788;2023-07-13T10:56:43;24.40;57.20
24664;DHT22;12791;50.992;13.788;2023-07-13T10:59:14;24.40;57.80
24664;DHT22;12791;50.992;13.788;2023-07-13T11:01:51;24.50;56.70
24664;DHT22;12791;50.992;13.788;2023-07-13T11:04:21;24.40;55.90
24664;DHT22;12791;50.992;13.788;2023-07-13T11:06:56;24.50;55.20
24664;DHT22;12791;50.992;13.788;2023-07-13T11:09:36;24.40;55.50
24664;DHT22;12791;50.992;13.788;2023-07-13T11:12:09;24.50;56.70
24664;DHT22;12791;50.992;13.788;2023-07-13T11:14:43;24.50;57.60
24664;DHT22;12791;50.992;13.788;2023-07-13T11:17:37;24.50;57.50
24664;DHT22;12791;50.992;13.788;2023-07-13T11:22:52;24.60;56.50
24664;DHT22;12791;50.992;13.788;2023-07-13T11:25:28;24.60;55.80
24664;DHT22;12791;50.992;13.788;2023-07-13T11:28:20;24.50;55.60
24664;DHT22;12791;50.992;13.788;2023-07-13T11:30:53;24.50;55.90
24664;DHT22;12791;50.992;13.788;2023-07-13T11:33:29;24.50;53.90
24664;DHT22;12791;50.992;13.788;2023-07-13T11:36:03;24.50;53.70
24664;DHT22;12791;50.992;13.788;2023-07-13T11:38:33;24.50;52.20
24664;DHT22;12791;50.992;13.788;2023-07-13T11:41:04;24.50;50.30
24664;DHT22;12791;50.992;13.788;2023-07-13T11:43:32;24.50;49.50
24664;DHT22;12791;50.992;13.788;2023-07-13T11:46:13;24.50;49.00
24664;DHT22;12791;50.992;13.788;2023-07-13T11:48:41;24.60;49.60
24664;DHT22;12791;50.992;13.788;2023-07-13T11:51:18;24.60;50.30
24664;DHT22;12791;50.992;13.788;2023-07-13T11:53:49;24.60;51.30
24664;DHT22;12791;50.992;13.788;2023-07-13T11:56:17;24.70;52.80
24664;DHT22;12791;50.992;13.788;2023-07-13T11:58:48;24.70;54.00
24664;DHT22;12791;50.992;13.788;2023-07-13T12:01:20;24.80;53.60
24664;DHT22;12791;50.992;13.788;2023-07-13T12:03:48;24.80;52.50
24664;DHT22;12791;50.992;13.788;2023-07-13T12:06:28;24.90;52.50
24664;DHT22;12791;50.992;13.788;2023-07-13T12:09:01;24.90;52.90
24664;DHT22;12791;50.992;13.788;2023-07-13T12:11:29;24.90;52.40
24664;DHT22;12791;50.992;13.788;2023-07-13T12:13:57;25.00;50.40
24664;DHT22;12791;50.992;13.788;2023-07-13T12:16:27;24.90;51.90
24664;DHT22;12791;50.992;13.788;2023-07-13T12:18:56;24.90;50.60
24664;DHT22;12791;50.992;13.788;2023-07-13T12:21:30;25.00;50.70
24664;DHT22;12791;50.992;13.788;2023-07-13T12:23:59;25.00;51.10
24664;DHT22;12791;50.992;13.788;2023-07-13T12:26:28;25.10;51.20
24664;DHT22;12791;50.992;13.788;2023-07-13T12:28:58;25.10;50.00
24664;DHT22;12791;50.992;13.788;2023-07-13T12:31:31;25.20;50.00
24664;DHT22;12791;50.992;13.788;2023-07-13T12:34:01;25.20;49.30
24664;DHT22;12791;50.992;13.788;2023-07-13T12:36:34;25.20;49.20
24664;DHT22;12791;50.992;13.788;2023-07-13T12:39:10;25.20;50.00
24664;DHT22;12791;50.992;13.788;2023-07-13T12:41:39;25.20;49.70
24664;DHT22;12791;50.992;13.788;2023-07-13T12:44:10;25.20;50.00
24664;DHT22;12791;50.992;13.788;2023-07-13T12:46:38;25.20;49.60
24664;DHT22;12791;50.992;13.788;2023-07-13T12:49:07;25.20;50.00
24664;DHT22;12791;50.992;13.788;2023-07-13T12:51:35;25.10;50.00
24664;DHT22;12791;50.992;13.788;2023-07-13T12:54:15;25.00;49.90
24664;DHT22;12791;50.992;13.788;2023-07-13T12:56:43;24.90;50.30
24664;DHT22;12791;50.992;13.788;2023-07-13T12:59:16;24.80;50.30
24664;DHT22;12791;50.992;13.788;2023-07-13T13:01:45;24.80;50.30
24664;DHT22;12791;50.992;13.788;2023-07-13T13:04:13;24.80;49.80
24664;DHT22;12791;50.992;13.788;2023-07-13T13:06:40;24.90;50.60
24664;DHT22;12791;50.992;13.788;2023-07-13T13:09:13;25.00;50.00
24664;DHT22;12791;50.992;13.788;2023-07-13T13:11:41;25.20;49.30
24664;DHT22;12791;50.992;13.788;2023-07-13T13:14:08;25.20;48.20
24664;DHT22;12791;50.992;13.788;2023-07-13T13:16:45;25.30;47.50
24664;DHT22;12791;50.992;13.788;2023-07-13T13:19:15;25.30;47.50
24664;DHT22;12791;50.992;13.788;2023-07-13T13:21:44;25.30;47.70
24664;DHT22;12791;50.992;13.788;2023-07-13T13:24:14;25.40;46.70
24664;DHT22;12791;50.992;13.788;2023-07-13T13:26:43;25.40;45.50
24664;DHT22;12791;50.992;13.788;2023-07-13T13:29:45;25.50;45.10
24664;DHT22;12791;50.992;13.788;2023-07-13T13:32:35;25.50;45.30
24664;DHT22;12791;50.992;13.788;2023-07-13T13:35:05;25.60;45.80
24664;DHT22;12791;50.992;13.788;2023-07-13T13:37:47;25.60;44.70
24664;DHT22;12791;50.992;13.788;2023-07-13T13:40:25;25.50;44.70
24664;DHT22;12791;50.992;13.788;2023-07-13T13:42:53;25.40;44.50
24664;DHT22;12791;50.992;13.788;2023-07-13T13:45:52;25.40;43.50
24664;DHT22;12791;50.992;13.788;2023-07-13T13:48:58;25.50;43.60
24664;DHT22;12791;50.992;13.788;2023-07-13T13:51:26;25.50;43.50
24664;DHT22;12791;50.992;13.788;2023-07-13T13:53:53;25.60;43.20
24664;DHT22;12791;50.992;13.788;2023-07-13T14:00:14;25.70;43.60
24664;DHT22;12791;50.992;13.788;2023-07-13T14:02:50;25.60;43.30
24664;DHT22;12791;50.992;13.788;2023-07-13T14:06:01;25.60;43.20
24664;DHT22;12791;50.992;13.788;2023-07-13T14:08:46;25.60;42.90
24664;DHT22;12791;50.992;13.788;2023-07-13T14:14:38;25.50;43.10
24664;DHT22;12791;50.992;13.788;2023-07-13T14:17:33;25.60;42.60
24664;DHT22;12791;50.992;13.788;2023-07-13T14:20:18;25.70;42.40
24664;DHT22;12791;50.992;13.788;2023-07-13T14:22:58;26.00;42.40
24664;DHT22;12791;50.992;13.788;2023-07-13T14:25:47;26.00;41.70
24664;DHT22;12791;50.992;13.788;2023-07-13T14:31:41;26.20;42.40
24664;DHT22;12791;50.992;13.788;2023-07-13T14:34:10;26.20;42.10
24664;DHT22;12791;50.992;13.788;2023-07-13T14:36:40;26.30;41.20
24664;DHT22;12791;50.992;13.788;2023-07-13T14:39:12;26.40;41.00
24664;DHT22;12791;50.992;13.788;2023-07-13T14:41:39;26.50;40.90
24664;DHT22;12791;50.992;13.788;2023-07-13T14:44:13;26.50;40.80
24664;DHT22;12791;50.992;13.788;2023-07-13T14:46:42;26.60;40.00
24664;DHT22;12791;50.992;13.788;2023-07-13T14:49:16;26.60;39.50
24664;DHT22;12791;50.992;13.788;2023-07-13T14:51:48;26.60;39.50
24664;DHT22;12791;50.992;13.788;2023-07-13T14:54:15;26.60;38.70
24664;DHT22;12791;50.992;13.788;2023-07-13T14:56:42;26.50;38.90
24664;DHT22;12791;50.992;13.788;2023-07-13T14:59:09;26.40;39.00
24664;DHT22;12791;50.992;13.788;2023-07-13T15:01:40;26.30;39.30
24664;DHT22;12791;50.992;13.788;2023-07-13T15:04:08;26.10;39.80
24664;DHT22;12791;50.992;13.788;2023-07-13T15:06:54;25.90;40.20
24664;DHT22;12791;50.992;13.788;2023-07-13T15:09:21;25.80;40.70
24664;DHT22;12791;50.992;13.788;2023-07-13T15:11:50;25.70;42.00
24664;DHT22;12791;50.992;13.788;2023-07-13T15:14:19;25.70;40.80
24664;DHT22;12791;50.992;13.788;2023-07-13T15:16:50;25.70;40.90
24664;DHT22;12791;50.992;13.788;2023-07-13T15:19:21;25.80;41.00
24664;DHT22;12791;50.992;13.788;2023-07-13T15:21:49;25.90;40.10
24664;DHT22;12791;50.992;13.788;2023-07-13T15:24:17;26.00;39.70
24664;DHT22;12791;50.992;13.788;2023-07-13T15:26:47;26.20;39.60
24664;DHT22;12791;50.992;13.788;2023-07-13T15:29:16;26.30;39.30
24664;DHT22;12791;50.992;13.788;2023-07-13T15:31:44;26.40;39.00
24664;DHT22;12791;50.992;13.788;2023-07-13T15:34:15;26.40;38.80
24664;DHT22;12791;50.992;13.788;2023-07-13T15:36:43;26.50;39.40
24664;DHT22;12791;50.992;13.788;2023-07-13T15:39:14;26.50;38.40
24664;DHT22;12791;50.992;13.788;2023-07-13T15:41:43;26.50;38.00
24664;DHT22;12791;50.992;13.788;2023-07-13T15:44:23;26.50;35.80
24664;DHT22;12791;50.992;13.788;2023-07-13T15:46:51;26.40;36.50
24664;DHT22;12791;50.992;13.788;2023-07-13T15:49:20;26.40;37.20
24664;DHT22;12791;50.992;13.788;2023-07-13T15:51:48;26.30;37.70
24664;DHT22;12791;50.992;13.788;2023-07-13T15:54:18;26.20;35.50